ADDS METAR Data INFO
IDs: Format: Raw Decoded Include TAF

Data at: 1204 UTC 21 Jun 2018

KPTK 211153Z 08003KT 10SM FEW200 BKN240 17/11 A2989 RMK AO2 SLP118 T01720111 10172 20133 53010
KPTK 211053Z 00000KT 10SM FEW130 BKN230 15/12 A2988 RMK AO2 SLP114 T01500117
KPTK 210953Z 00000KT 10SM FEW130 BKN230 14/13 A2986 RMK AO2 SLP108 T01390133
KPTK 210853Z AUTO 00000KT 9SM CLR 14/14 A2986 RMK AO2 SLP108 T01440139 56004
KPTK 210753Z AUTO 00000KT 3SM BR CLR 14/14 A2986 RMK AO2 SLP108 T01440139
KPTK 210653Z AUTO 00000KT 10SM CLR 16/15 A2986 RMK AO2 SLP110 T01560150
KPTK 210553Z AUTO 00000KT 10SM CLR 16/15 A2987 RMK AO2 SLP112 T01610150 10211 20156 56006
KPTK 210453Z AUTO 00000KT 10SM CLR 17/16 A2987 RMK AO2 SLP112 T01670156 402280161
KPTK 210353Z 00000KT 10SM SCT090 BKN230 17/16 A2988 RMK AO2 SLP114 LAST T01720156
KPTK 210253Z 00000KT 10SM FEW085 SCT230 17/15 A2989 RMK AO2 SLP119 T01720150 51018
KPTK 210153Z 00000KT 10SM SCT080 BKN230 20/14 A2988 RMK AO2 SLP115 T02000144
KPTK 210053Z 00000KT 10SM FEW060 BKN230 21/14 A2986 RMK AO2 SLP106 T02060139
KPTK 202353Z 07005KT 10SM FEW032 FEW080 BKN250 21/14 A2984 RMK AO2 SLP099 60000 T02110139 10228 20189 56007
KPTK 202253Z 02006KT 10SM FEW031 FEW055 SCT080 BKN250 22/14 A2984 RMK AO2 SLP099 T02220144
KPTK 202153Z 00000KT 10SM FEW029 FEW055 BKN080 BKN250 22/14 A2984 RMK AO2 SLP102 T02220144
KPTK 202053Z 00000KT 10SM FEW029 BKN055 BKN080 22/14 A2986 RMK AO2 SLP107 60000 T02170144 58011
KPTK 201953Z VRB05KT 10SM FEW032 BKN055 OVC090 21/14 A2988 RMK AO2 SLP114 T02110144
KPTK 201853Z 05008KT 10SM BKN032 OVC055 19/13 A2990 RMK AO2 RAB38E49 SLP119 P0000 T01940133
KPTK 201753Z 05004KT 10SM FEW026 BKN049 OVC060 19/13 A2989 RMK AO2 SLP118 60000 T01940128 10194 20167 58001
KPTK 201653Z VRB03KT 10SM FEW024 BKN045 OVC060 19/12 A2990 RMK AO2 SLP122 T01890122
KPTK 201553Z 09006KT 10SM FEW020 BKN036 OVC044 18/12 A2990 RMK AO2 SLP122 T01780117
KPTK 201453Z 10006KT 10SM FEW026 SCT049 BKN060 OVC140 17/11 A2990 RMK AO2 SLP119 60000 T01720106 58002
KPTK 201353Z 07008KT 10SM FEW024 OVC035 17/11 A2990 RMK AO2 RAB1255E47 SLP122 P0000 T01670106
KPTK 201253Z 07008KT 10SM OVC032 17/13 A2990 RMK AO2 RAB46E50 SLP122 P0000 T01720133
KPTK 201153Z 05007KT 10SM FEW020 BKN034 OVC045 18/13 A2990 RMK AO2 SLP120 T01780128 10189 20172 58003
KPTK 201053Z 06004KT 10SM OVC038 17/09 A2993 RMK AO2 SLP129 T01720094
KPTK 200953Z 00000KT 10SM OVC043 18/08 A2993 RMK AO2 SLP130 T01780078
KPTK 200853Z AUTO 06005KT 10SM OVC047 18/07 A2991 RMK AO2 SLP123 T01780072 55008
KPTK 200753Z AUTO 06004KT 10SM BKN048 OVC055 18/09 A2991 RMK AO2 SLP123 T01780094
KPTK 200653Z AUTO 05003KT 10SM OVC049 18/08 A2992 RMK AO2 SLP128 T01830083
KPTK 200553Z AUTO 05005KT 10SM OVC049 19/15 A2993 RMK AO2 SLP132 T01890150 10233 20189 56008
KPTK 200453Z AUTO 07005KT 10SM FEW055 OVC075 19/14 A2994 RMK AO2 SLP133 T01890139 402440178
KPTK 200353Z 09006KT 10SM BKN070 OVC090 19/13 A2994 RMK AO2 SLP135 LAST T01890133
KPTK 200253Z 08006KT 10SM OVC070 20/14 A2996 RMK AO2 SLP139 T02000139 55001
KPTK 200153Z 07008KT 10SM BKN034 OVC075 21/13 A2995 RMK AO2 SLP137 T02110128
KPTK 200053Z 08006KT 10SM BKN055 OVC090 22/13 A2996 RMK AO2 SLP141 T02220133